メインページ
METAR-TAF:

METAR-TAF

空港 :

ブルネイ国際空港

ブルネイ, ブルネイ

緯度: 04-56N, 経度: 114-56E, 海抜: 22m

現時点の気象観測

当レポートは28分前の02:30(UTC)に作成
西/南西の風 2kt
気温 31°C
湿度 75%
気圧 1012 hPa
視程10km以上
高度1600ftの雲はほとんどない
高度1700ftの雲はほとんどない, 積乱雲.
高度30000ftの千切れ雲あり

METAR: WBSB 150230Z 24002KT 9999 FEW016 FEW017CB BKN300 31/26 Q1012 NOSIG

時間: 10:58 (02:58 UTC)

予報

当レポートは3時間58分前の23:00(UTC)に作成
予報は15日の 00時(UTC)から 16日の 06時(UTC)まで有効
南/南西の風 3kt
視程10km以上
高度1500ftの雲はほとんどない
高度1600ftの雲はほとんどない, 積乱雲.
15日の 03時(UTC)から 15日の 05時(UTC)まで徐々に
北/北西の風 10kt
高度1600ftの雲は散在している
高度1700ftの雲はほとんどない, 積乱雲.
15日の 04時(UTC)から 15日の 06時(UTC)まで一時的に
視程: 8000m
にわか雨

TAF: WBSB 142300Z 1500/1606 20003KT 9999 FEW015 FEW016CB BECMG 1503/1505 34010KT SCT016 FEW017CB TEMPO 1504/1506 8000 SHRA

4,000以上の空港の気象観測と天気予報(METAR報とTAF報)

利用可能な観測所は地図上に黄色い丸と赤い丸で示す。

丸の上にカーソルを重ねると観測所名を参照できる。

次にクリックすると気象観測と天気予報を参照できる。

マップの切り替え:黒色「×」印の緑ボタンをクリックして拡大、「-」印の緑ボタンをクリックして縮小、緑色の三角印をクリックして隣りの地図に切り替え


METAR-TAF: